sensor_id;sensor_type;location;lat;lon;timestamp;temperature;humidity
31369;DHT22;18004;48.416;10.066;2022-09-12T00:01:12;12.90;99.90
31369;DHT22;18004;48.416;10.066;2022-09-12T00:03:38;12.90;99.90
31369;DHT22;18004;48.416;10.066;2022-09-12T00:06:23;12.80;99.90
31369;DHT22;18004;48.416;10.066;2022-09-12T00:08:50;12.80;99.90
31369;DHT22;18004;48.416;10.066;2022-09-12T00:11:15;12.80;99.90
31369;DHT22;18004;48.416;10.066;2022-09-12T00:13:41;12.80;99.90
31369;DHT22;18004;48.416;10.066;2022-09-12T00:16:12;12.80;99.90
31369;DHT22;18004;48.416;10.066;2022-09-12T00:18:38;12.70;99.90
31369;DHT22;18004;48.416;10.066;2022-09-12T00:21:04;12.70;99.90
31369;DHT22;18004;48.416;10.066;2022-09-12T00:23:30;12.50;99.90
31369;DHT22;18004;48.416;10.066;2022-09-12T00:25:56;12.60;99.90
31369;DHT22;18004;48.416;10.066;2022-09-12T00:28:22;12.50;99.90
31369;DHT22;18004;48.416;10.066;2022-09-12T00:30:47;12.50;99.90
31369;DHT22;18004;48.416;10.066;2022-09-12T00:33:14;12.40;99.90
31369;DHT22;18004;48.416;10.066;2022-09-12T00:35:41;12.40;99.90
31369;DHT22;18004;48.416;10.066;2022-09-12T00:38:06;12.40;99.90
31369;DHT22;18004;48.416;10.066;2022-09-12T00:40:32;12.30;99.90
31369;DHT22;18004;48.416;10.066;2022-09-12T00:42:57;12.30;99.90
31369;DHT22;18004;48.416;10.066;2022-09-12T00:45:25;12.30;99.90
31369;DHT22;18004;48.416;10.066;2022-09-12T00:47:51;12.20;99.90
31369;DHT22;18004;48.416;10.066;2022-09-12T00:50:17;12.20;99.90
31369;DHT22;18004;48.416;10.066;2022-09-12T00:52:45;12.20;99.90
31369;DHT22;18004;48.416;10.066;2022-09-12T00:57:39;12.20;99.90
31369;DHT22;18004;48.416;10.066;2022-09-12T01:00:08;12.10;99.90
31369;DHT22;18004;48.416;10.066;2022-09-12T01:02:44;12.10;99.90
31369;DHT22;18004;48.416;10.066;2022-09-12T01:05:11;12.10;99.90
31369;DHT22;18004;48.416;10.066;2022-09-12T01:07:37;12.20;99.90
31369;DHT22;18004;48.416;10.066;2022-09-12T01:10:07;12.20;99.90
31369;DHT22;18004;48.416;10.066;2022-09-12T01:12:34;12.10;99.90
31369;DHT22;18004;48.416;10.066;2022-09-12T01:15:02;12.10;99.90
31369;DHT22;18004;48.416;10.066;2022-09-12T01:17:29;12.20;99.90
31369;DHT22;18004;48.416;10.066;2022-09-12T01:23:03;12.20;99.90
31369;DHT22;18004;48.416;10.066;2022-09-12T01:25:45;12.20;99.90
31369;DHT22;18004;48.416;10.066;2022-09-12T01:31:12;12.20;99.90
31369;DHT22;18004;48.416;10.066;2022-09-12T01:41:16;12.10;99.90
31369;DHT22;18004;48.416;10.066;2022-09-12T01:43:51;12.10;99.90
31369;DHT22;18004;48.416;10.066;2022-09-12T01:49:17;12.10;99.90
31369;DHT22;18004;48.416;10.066;2022-09-12T01:51:51;12.00;99.90
31369;DHT22;18004;48.416;10.066;2022-09-12T01:57:14;12.00;99.90
31369;DHT22;18004;48.416;10.066;2022-09-12T01:59:45;12.00;99.90
31369;DHT22;18004;48.416;10.066;2022-09-12T02:02:20;11.90;99.90
31369;DHT22;18004;48.416;10.066;2022-09-12T02:04:50;11.90;99.90
31369;DHT22;18004;48.416;10.066;2022-09-12T02:07:18;11.80;99.90
31369;DHT22;18004;48.416;10.066;2022-09-12T02:09:46;11.70;99.90
31369;DHT22;18004;48.416;10.066;2022-09-12T02:12:14;11.60;99.90
31369;DHT22;18004;48.416;10.066;2022-09-12T02:14:42;11.60;99.90
31369;DHT22;18004;48.416;10.066;2022-09-12T02:17:11;11.60;99.90
31369;DHT22;18004;48.416;10.066;2022-09-12T02:19:48;11.60;99.90
31369;DHT22;18004;48.416;10.066;2022-09-12T02:22:16;11.50;99.90
31369;DHT22;18004;48.416;10.066;2022-09-12T02:24:42;11.50;99.90
31369;DHT22;18004;48.416;10.066;2022-09-12T02:27:10;11.50;99.90
31369;DHT22;18004;48.416;10.066;2022-09-12T02:29:38;11.40;99.90
31369;DHT22;18004;48.416;10.066;2022-09-12T02:32:05;11.50;99.90
31369;DHT22;18004;48.416;10.066;2022-09-12T02:34:50;11.50;99.90
31369;DHT22;18004;48.416;10.066;2022-09-12T02:39:53;11.60;99.90
31369;DHT22;18004;48.416;10.066;2022-09-12T02:42:20;11.60;99.90
31369;DHT22;18004;48.416;10.066;2022-09-12T02:44:46;11.60;99.90
31369;DHT22;18004;48.416;10.066;2022-09-12T02:47:35;11.70;99.90
31369;DHT22;18004;48.416;10.066;2022-09-12T02:49:58;11.70;99.90
31369;DHT22;18004;48.416;10.066;2022-09-12T02:52:24;11.60;99.90
31369;DHT22;18004;48.416;10.066;2022-09-12T02:54:51;11.60;99.90
31369;DHT22;18004;48.416;10.066;2022-09-12T02:57:18;11.60;99.90
31369;DHT22;18004;48.416;10.066;2022-09-12T02:59:44;11.50;99.90
31369;DHT22;18004;48.416;10.066;2022-09-12T03:02:23;11.50;99.90
31369;DHT22;18004;48.416;10.066;2022-09-12T03:04:57;11.50;99.90
31369;DHT22;18004;48.416;10.066;2022-09-12T03:15:21;11.60;99.90
31369;DHT22;18004;48.416;10.066;2022-09-12T03:18:34;11.60;99.90
31369;DHT22;18004;48.416;10.066;2022-09-12T03:23:08;11.50;99.90
31369;DHT22;18004;48.416;10.066;2022-09-12T03:25:47;11.50;99.90
31369;DHT22;18004;48.416;10.066;2022-09-12T03:28:14;11.50;99.90
31369;DHT22;18004;48.416;10.066;2022-09-12T03:30:42;11.40;99.90
31369;DHT22;18004;48.416;10.066;2022-09-12T03:33:11;11.30;99.90
31369;DHT22;18004;48.416;10.066;2022-09-12T03:35:37;11.30;99.90
31369;DHT22;18004;48.416;10.066;2022-09-12T03:38:03;11.30;99.90
31369;DHT22;18004;48.416;10.066;2022-09-12T03:40:35;11.40;99.90
31369;DHT22;18004;48.416;10.066;2022-09-12T03:43:01;11.40;99.90
31369;DHT22;18004;48.416;10.066;2022-09-12T03:45:27;11.40;99.90
31369;DHT22;18004;48.416;10.066;2022-09-12T03:47:53;11.30;99.90
31369;DHT22;18004;48.416;10.066;2022-09-12T03:50:18;11.30;99.90
31369;DHT22;18004;48.416;10.066;2022-09-12T03:52:44;11.30;99.90
31369;DHT22;18004;48.416;10.066;2022-09-12T03:55:10;11.30;99.90
31369;DHT22;18004;48.416;10.066;2022-09-12T03:57:36;11.30;99.90
31369;DHT22;18004;48.416;10.066;2022-09-12T04:00:03;11.30;99.90
31369;DHT22;18004;48.416;10.066;2022-09-12T04:02:28;11.30;99.90
31369;DHT22;18004;48.416;10.066;2022-09-12T04:04:54;11.30;99.90
31369;DHT22;18004;48.416;10.066;2022-09-12T04:07:20;11.00;99.90
31369;DHT22;18004;48.416;10.066;2022-09-12T04:09:45;10.90;99.90
31369;DHT22;18004;48.416;10.066;2022-09-12T04:12:11;10.80;99.90
31369;DHT22;18004;48.416;10.066;2022-09-12T04:14:38;10.70;99.90
31369;DHT22;18004;48.416;10.066;2022-09-12T04:17:04;10.80;99.90
31369;DHT22;18004;48.416;10.066;2022-09-12T04:19:29;10.80;99.90
31369;DHT22;18004;48.416;10.066;2022-09-12T04:21:55;10.90;99.90
31369;DHT22;18004;48.416;10.066;2022-09-12T04:24:21;11.10;99.90
31369;DHT22;18004;48.416;10.066;2022-09-12T04:26:46;11.10;99.90
31369;DHT22;18004;48.416;10.066;2022-09-12T04:29:12;11.20;99.90
31369;DHT22;18004;48.416;10.066;2022-09-12T04:31:39;11.20;99.90
31369;DHT22;18004;48.416;10.066;2022-09-12T04:34:05;11.20;99.90
31369;DHT22;18004;48.416;10.066;2022-09-12T04:36:31;11.30;99.90
31369;DHT22;18004;48.416;10.066;2022-09-12T04:38:59;11.30;99.90
31369;DHT22;18004;48.416;10.066;2022-09-12T04:41:26;11.30;99.90
31369;DHT22;18004;48.416;10.066;2022-09-12T04:43:53;11.30;99.90
31369;DHT22;18004;48.416;10.066;2022-09-12T04:46:19;11.30;99.90
31369;DHT22;18004;48.416;10.066;2022-09-12T04:48:45;11.30;99.90
31369;DHT22;18004;48.416;10.066;2022-09-12T04:53:37;11.40;99.90
31369;DHT22;18004;48.416;10.066;2022-09-12T04:56:04;11.20;99.90
31369;DHT22;18004;48.416;10.066;2022-09-12T04:58:31;11.00;99.90
31369;DHT22;18004;48.416;10.066;2022-09-12T05:01:02;11.00;99.90
31369;DHT22;18004;48.416;10.066;2022-09-12T05:03:28;11.00;99.90
31369;DHT22;18004;48.416;10.066;2022-09-12T05:05:53;11.10;99.90
31369;DHT22;18004;48.416;10.066;2022-09-12T05:08:19;11.10;99.90
31369;DHT22;18004;48.416;10.066;2022-09-12T05:10:44;11.20;99.90
31369;DHT22;18004;48.416;10.066;2022-09-12T05:13:10;11.30;99.90
31369;DHT22;18004;48.416;10.066;2022-09-12T05:15:36;11.40;99.90
31369;DHT22;18004;48.416;10.066;2022-09-12T05:18:02;11.40;99.90
31369;DHT22;18004;48.416;10.066;2022-09-12T05:20:27;11.30;99.90
31369;DHT22;18004;48.416;10.066;2022-09-12T05:22:53;11.30;99.90
31369;DHT22;18004;48.416;10.066;2022-09-12T05:25:20;11.40;99.90
31369;DHT22;18004;48.416;10.066;2022-09-12T05:27:45;11.40;99.90
31369;DHT22;18004;48.416;10.066;2022-09-12T05:30:11;11.50;99.90
31369;DHT22;18004;48.416;10.066;2022-09-12T05:32:37;11.50;99.90
31369;DHT22;18004;48.416;10.066;2022-09-12T05:35:02;11.60;99.90
31369;DHT22;18004;48.416;10.066;2022-09-12T05:37:28;11.60;99.90
31369;DHT22;18004;48.416;10.066;2022-09-12T05:39:54;11.70;99.90
31369;DHT22;18004;48.416;10.066;2022-09-12T05:42:20;11.70;99.90
31369;DHT22;18004;48.416;10.066;2022-09-12T05:44:45;11.80;99.90
31369;DHT22;18004;48.416;10.066;2022-09-12T05:47:11;11.80;99.90
31369;DHT22;18004;48.416;10.066;2022-09-12T05:49:37;11.60;99.90
31369;DHT22;18004;48.416;10.066;2022-09-12T05:52:03;11.70;99.90
31369;DHT22;18004;48.416;10.066;2022-09-12T05:54:28;11.70;99.90
31369;DHT22;18004;48.416;10.066;2022-09-12T05:56:54;11.80;99.90
31369;DHT22;18004;48.416;10.066;2022-09-12T05:59:21;11.70;99.90
31369;DHT22;18004;48.416;10.066;2022-09-12T06:01:48;11.70;99.90
31369;DHT22;18004;48.416;10.066;2022-09-12T06:04:14;11.70;99.90
31369;DHT22;18004;48.416;10.066;2022-09-12T06:06:40;11.80;99.90
31369;DHT22;18004;48.416;10.066;2022-09-12T06:09:07;11.70;99.90
31369;DHT22;18004;48.416;10.066;2022-09-12T06:11:34;11.80;99.90
31369;DHT22;18004;48.416;10.066;2022-09-12T06:14:00;11.80;99.90
31369;DHT22;18004;48.416;10.066;2022-09-12T06:16:27;11.80;99.90
31369;DHT22;18004;48.416;10.066;2022-09-12T06:18:54;11.70;99.90
31369;DHT22;18004;48.416;10.066;2022-09-12T06:21:20;11.60;99.90
31369;DHT22;18004;48.416;10.066;2022-09-12T06:23:46;11.70;99.90
31369;DHT22;18004;48.416;10.066;2022-09-12T06:26:13;11.80;99.90
31369;DHT22;18004;48.416;10.066;2022-09-12T06:28:39;11.90;99.90
31369;DHT22;18004;48.416;10.066;2022-09-12T06:31:07;12.00;99.90
31369;DHT22;18004;48.416;10.066;2022-09-12T06:33:33;12.10;99.90
31369;DHT22;18004;48.416;10.066;2022-09-12T06:36:06;12.10;99.90
31369;DHT22;18004;48.416;10.066;2022-09-12T06:38:32;12.20;99.90
31369;DHT22;18004;48.416;10.066;2022-09-12T06:40:58;12.20;99.90
31369;DHT22;18004;48.416;10.066;2022-09-12T06:43:25;12.20;99.90
31369;DHT22;18004;48.416;10.066;2022-09-12T06:45:53;12.10;99.90
31369;DHT22;18004;48.416;10.066;2022-09-12T06:48:19;12.10;99.90
31369;DHT22;18004;48.416;10.066;2022-09-12T06:50:55;12.00;99.90
31369;DHT22;18004;48.416;10.066;2022-09-12T06:53:21;12.00;99.90
31369;DHT22;18004;48.416;10.066;2022-09-12T06:55:53;11.90;99.90
31369;DHT22;18004;48.416;10.066;2022-09-12T06:58:18;11.90;99.90
31369;DHT22;18004;48.416;10.066;2022-09-12T07:00:44;12.00;99.90
31369;DHT22;18004;48.416;10.066;2022-09-12T07:03:10;12.00;99.90
31369;DHT22;18004;48.416;10.066;2022-09-12T07:05:35;12.10;99.90
31369;DHT22;18004;48.416;10.066;2022-09-12T07:08:01;12.10;99.90
31369;DHT22;18004;48.416;10.066;2022-09-12T07:10:28;12.10;99.90
31369;DHT22;18004;48.416;10.066;2022-09-12T07:12:55;12.20;99.90
31369;DHT22;18004;48.416;10.066;2022-09-12T07:15:20;12.30;99.90
31369;DHT22;18004;48.416;10.066;2022-09-12T07:17:46;12.20;99.90
31369;DHT22;18004;48.416;10.066;2022-09-12T07:20:12;12.20;99.90
31369;DHT22;18004;48.416;10.066;2022-09-12T07:22:39;12.30;99.90
31369;DHT22;18004;48.416;10.066;2022-09-12T07:25:06;12.40;99.90
31369;DHT22;18004;48.416;10.066;2022-09-12T07:27:31;12.20;99.90
31369;DHT22;18004;48.416;10.066;2022-09-12T07:29:57;12.30;99.90
31369;DHT22;18004;48.416;10.066;2022-09-12T07:32:23;12.40;99.90
31369;DHT22;18004;48.416;10.066;2022-09-12T07:34:48;12.50;99.90
31369;DHT22;18004;48.416;10.066;2022-09-12T07:37:14;12.60;99.90
31369;DHT22;18004;48.416;10.066;2022-09-12T07:39:40;12.50;99.90
31369;DHT22;18004;48.416;10.066;2022-09-12T07:42:05;12.50;99.90
31369;DHT22;18004;48.416;10.066;2022-09-12T07:44:31;12.40;99.90
31369;DHT22;18004;48.416;10.066;2022-09-12T07:46:57;12.50;99.90
31369;DHT22;18004;48.416;10.066;2022-09-12T07:49:22;12.50;99.90
31369;DHT22;18004;48.416;10.066;2022-09-12T07:51:48;12.50;99.90
31369;DHT22;18004;48.416;10.066;2022-09-12T07:54:14;12.50;99.90
31369;DHT22;18004;48.416;10.066;2022-09-12T07:56:40;12.40;99.90
31369;DHT22;18004;48.416;10.066;2022-09-12T07:59:06;12.50;99.90
31369;DHT22;18004;48.416;10.066;2022-09-12T08:01:33;12.70;99.90
31369;DHT22;18004;48.416;10.066;2022-09-12T08:03:59;12.70;99.90
31369;DHT22;18004;48.416;10.066;2022-09-12T08:06:25;12.80;99.90
31369;DHT22;18004;48.416;10.066;2022-09-12T08:08:52;12.90;99.90
31369;DHT22;18004;48.416;10.066;2022-09-12T08:11:19;13.20;99.90
31369;DHT22;18004;48.416;10.066;2022-09-12T08:13:45;13.30;99.90
31369;DHT22;18004;48.416;10.066;2022-09-12T08:16:15;13.50;99.90
31369;DHT22;18004;48.416;10.066;2022-09-12T08:18:42;13.40;99.90
31369;DHT22;18004;48.416;10.066;2022-09-12T08:21:12;13.40;99.90
31369;DHT22;18004;48.416;10.066;2022-09-12T08:23:39;13.50;99.90
31369;DHT22;18004;48.416;10.066;2022-09-12T08:26:04;13.60;99.90
31369;DHT22;18004;48.416;10.066;2022-09-12T08:28:31;13.70;99.90
31369;DHT22;18004;48.416;10.066;2022-09-12T08:31:01;13.40;99.90
31369;DHT22;18004;48.416;10.066;2022-09-12T08:33:28;13.50;99.90
31369;DHT22;18004;48.416;10.066;2022-09-12T08:36:08;13.70;99.90
31369;DHT22;18004;48.416;10.066;2022-09-12T08:38:34;13.90;99.90
31369;DHT22;18004;48.416;10.066;2022-09-12T08:41:06;13.80;99.90
31369;DHT22;18004;48.416;10.066;2022-09-12T08:46:21;14.20;99.90
31369;DHT22;18004;48.416;10.066;2022-09-12T08:48:47;14.30;99.90
31369;DHT22;18004;48.416;10.066;2022-09-12T08:51:14;14.60;99.90
31369;DHT22;18004;48.416;10.066;2022-09-12T08:53:41;14.40;99.90
31369;DHT22;18004;48.416;10.066;2022-09-12T08:56:08;14.70;99.90
31369;DHT22;18004;48.416;10.066;2022-09-12T08:58:39;15.00;99.90
31369;DHT22;18004;48.416;10.066;2022-09-12T09:01:07;15.30;99.90
31369;DHT22;18004;48.416;10.066;2022-09-12T09:06:24;15.40;99.90
31369;DHT22;18004;48.416;10.066;2022-09-12T09:09:11;15.70;99.90
31369;DHT22;18004;48.416;10.066;2022-09-12T09:17:18;15.70;99.90
31369;DHT22;18004;48.416;10.066;2022-09-12T09:20:09;15.50;99.90
31369;DHT22;18004;48.416;10.066;2022-09-12T09:25:07;15.70;99.90
31369;DHT22;18004;48.416;10.066;2022-09-12T09:27:36;15.80;99.90
31369;DHT22;18004;48.416;10.066;2022-09-12T09:30:07;16.00;99.90
31369;DHT22;18004;48.416;10.066;2022-09-12T09:32:37;16.40;99.90
31369;DHT22;18004;48.416;10.066;2022-09-12T09:38:01;16.50;99.90
31369;DHT22;18004;48.416;10.066;2022-09-12T09:40:44;16.30;99.90
31369;DHT22;18004;48.416;10.066;2022-09-12T09:45:39;16.30;99.90
31369;DHT22;18004;48.416;10.066;2022-09-12T09:48:18;16.50;99.90
31369;DHT22;18004;48.416;10.066;2022-09-12T09:50:45;16.70;99.90
31369;DHT22;18004;48.416;10.066;2022-09-12T09:53:24;16.80;99.50
31369;DHT22;18004;48.416;10.066;2022-09-12T09:55:51;17.10;98.70
31369;DHT22;18004;48.416;10.066;2022-09-12T09:58:30;17.10;98.10
31369;DHT22;18004;48.416;10.066;2022-09-12T10:00:57;17.40;98.90
31369;DHT22;18004;48.416;10.066;2022-09-12T10:03:25;17.90;96.20
31369;DHT22;18004;48.416;10.066;2022-09-12T10:05:53;18.20;95.50
31369;DHT22;18004;48.416;10.066;2022-09-12T10:08:20;18.10;93.60
31369;DHT22;18004;48.416;10.066;2022-09-12T10:10:57;18.20;91.40
31369;DHT22;18004;48.416;10.066;2022-09-12T10:13:26;18.40;91.50
31369;DHT22;18004;48.416;10.066;2022-09-12T10:15:56;19.00;91.80
31369;DHT22;18004;48.416;10.066;2022-09-12T10:18:33;19.50;88.30
31369;DHT22;18004;48.416;10.066;2022-09-12T10:20:59;19.80;83.20
31369;DHT22;18004;48.416;10.066;2022-09-12T10:23:29;19.90;77.80
31369;DHT22;18004;48.416;10.066;2022-09-12T10:25:57;20.00;76.10
31369;DHT22;18004;48.416;10.066;2022-09-12T10:28:47;20.30;78.80
31369;DHT22;18004;48.416;10.066;2022-09-12T10:31:14;20.20;74.40
31369;DHT22;18004;48.416;10.066;2022-09-12T10:33:42;19.90;72.60
31369;DHT22;18004;48.416;10.066;2022-09-12T10:36:09;20.30;79.40
31369;DHT22;18004;48.416;10.066;2022-09-12T10:38:35;20.50;74.50
31369;DHT22;18004;48.416;10.066;2022-09-12T10:41:07;20.50;65.50
31369;DHT22;18004;48.416;10.066;2022-09-12T10:43:39;19.90;69.80
31369;DHT22;18004;48.416;10.066;2022-09-12T10:46:27;20.00;74.50
31369;DHT22;18004;48.416;10.066;2022-09-12T10:51:37;20.90;69.10
31369;DHT22;18004;48.416;10.066;2022-09-12T10:54:04;21.20;61.20
31369;DHT22;18004;48.416;10.066;2022-09-12T10:59:17;21.30;64.20
31369;DHT22;18004;48.416;10.066;2022-09-12T11:01:48;21.30;55.80
31369;DHT22;18004;48.416;10.066;2022-09-12T11:12:07;21.30;62.20
31369;DHT22;18004;48.416;10.066;2022-09-12T11:19:59;21.90;49.40
31369;DHT22;18004;48.416;10.066;2022-09-12T11:27:53;22.30;50.10
31369;DHT22;18004;48.416;10.066;2022-09-12T11:30:25;22.00;42.10
31369;DHT22;18004;48.416;10.066;2022-09-12T11:33:00;21.70;39.30
31369;DHT22;18004;48.416;10.066;2022-09-12T11:40:52;22.40;37.80
31369;DHT22;18004;48.416;10.066;2022-09-12T11:46:28;22.30;42.40
31369;DHT22;18004;48.416;10.066;2022-09-12T11:49:03;22.80;37.50
31369;DHT22;18004;48.416;10.066;2022-09-12T11:54:21;23.30;26.90
31369;DHT22;18004;48.416;10.066;2022-09-12T11:56:50;23.20;26.90
31369;DHT22;18004;48.416;10.066;2022-09-12T11:59:30;23.60;27.40
31369;DHT22;18004;48.416;10.066;2022-09-12T12:01:57;23.80;24.80
31369;DHT22;18004;48.416;10.066;2022-09-12T12:04:26;23.40;27.90
31369;DHT22;18004;48.416;10.066;2022-09-12T12:06:56;23.50;24.90
31369;DHT22;18004;48.416;10.066;2022-09-12T12:09:26;23.60;26.00
31369;DHT22;18004;48.416;10.066;2022-09-12T12:11:52;23.20;23.90
31369;DHT22;18004;48.416;10.066;2022-09-12T12:14:19;23.10;26.30
31369;DHT22;18004;48.416;10.066;2022-09-12T12:16:46;23.10;26.60
31369;DHT22;18004;48.416;10.066;2022-09-12T12:21:42;23.10;26.00
31369;DHT22;18004;48.416;10.066;2022-09-12T12:34:34;22.80;22.80
31369;DHT22;18004;48.416;10.066;2022-09-12T12:39:55;22.70;25.60
31369;DHT22;18004;48.416;10.066;2022-09-12T12:44:57;22.90;24.10
31369;DHT22;18004;48.416;10.066;2022-09-12T12:49:51;23.20;22.20
31369;DHT22;18004;48.416;10.066;2022-09-12T12:52:16;23.30;21.90
31369;DHT22;18004;48.416;10.066;2022-09-12T12:59:43;23.70;23.20
31369;DHT22;18004;48.416;10.066;2022-09-12T13:02:16;24.10;21.80
31369;DHT22;18004;48.416;10.066;2022-09-12T13:04:43;24.00;19.20
31369;DHT22;18004;48.416;10.066;2022-09-12T13:07:12;23.60;19.00
31369;DHT22;18004;48.416;10.066;2022-09-12T13:09:47;23.80;20.40
31369;DHT22;18004;48.416;10.066;2022-09-12T13:14:47;24.40;13.10
31369;DHT22;18004;48.416;10.066;2022-09-12T13:17:15;24.60;13.70
31369;DHT22;18004;48.416;10.066;2022-09-12T13:19:43;24.70;11.30
31369;DHT22;18004;48.416;10.066;2022-09-12T13:22:09;24.70;11.60
31369;DHT22;18004;48.416;10.066;2022-09-12T13:24:41;24.90;10.50
31369;DHT22;18004;48.416;10.066;2022-09-12T13:27:24;24.70;12.30
31369;DHT22;18004;48.416;10.066;2022-09-12T13:30:10;24.60;10.70
31369;DHT22;18004;48.416;10.066;2022-09-12T13:32:38;24.50;8.50
31369;DHT22;18004;48.416;10.066;2022-09-12T13:35:10;24.70;8.60
31369;DHT22;18004;48.416;10.066;2022-09-12T13:42:43;24.70;11.90
31369;DHT22;18004;48.416;10.066;2022-09-12T13:45:32;25.00;9.40
31369;DHT22;18004;48.416;10.066;2022-09-12T13:47:59;25.00;10.00
31369;DHT22;18004;48.416;10.066;2022-09-12T13:50:29;25.40;8.70
31369;DHT22;18004;48.416;10.066;2022-09-12T13:52:57;25.50;4.10
31369;DHT22;18004;48.416;10.066;2022-09-12T13:55:33;25.40;5.30
31369;DHT22;18004;48.416;10.066;2022-09-12T14:00:24;25.70;4.80
31369;DHT22;18004;48.416;10.066;2022-09-12T14:02:51;25.40;5.10
31369;DHT22;18004;48.416;10.066;2022-09-12T14:05:36;25.60;5.70
31369;DHT22;18004;48.416;10.066;2022-09-12T14:08:04;25.60;3.50
31369;DHT22;18004;48.416;10.066;2022-09-12T14:10:32;25.50;3.30
31369;DHT22;18004;48.416;10.066;2022-09-12T14:12:59;25.50;5.00
31369;DHT22;18004;48.416;10.066;2022-09-12T14:15:34;25.10;3.00
31369;DHT22;18004;48.416;10.066;2022-09-12T14:18:02;24.80;2.90
31369;DHT22;18004;48.416;10.066;2022-09-12T14:20:29;24.60;5.00
31369;DHT22;18004;48.416;10.066;2022-09-12T14:23:02;24.90;4.50
31369;DHT22;18004;48.416;10.066;2022-09-12T14:25:31;24.80;5.60
31369;DHT22;18004;48.416;10.066;2022-09-12T14:28:01;24.80;4.60
31369;DHT22;18004;48.416;10.066;2022-09-12T14:30:32;25.00;4.70
31369;DHT22;18004;48.416;10.066;2022-09-12T14:33:32;25.20;3.40
31369;DHT22;18004;48.416;10.066;2022-09-12T14:35:51;24.90;3.10
31369;DHT22;18004;48.416;10.066;2022-09-12T14:38:20;24.80;4.20
31369;DHT22;18004;48.416;10.066;2022-09-12T14:40:47;24.80;2.30
31369;DHT22;18004;48.416;10.066;2022-09-12T14:43:16;24.90;2.80
31369;DHT22;18004;48.416;10.066;2022-09-12T14:45:42;25.00;3.40
31369;DHT22;18004;48.416;10.066;2022-09-12T14:48:12;25.00;2.70
31369;DHT22;18004;48.416;10.066;2022-09-12T14:50:43;24.70;3.30
31369;DHT22;18004;48.416;10.066;2022-09-12T14:55:42;24.90;1.90
31369;DHT22;18004;48.416;10.066;2022-09-12T14:58:22;24.40;2.70
31369;DHT22;18004;48.416;10.066;2022-09-12T15:00:58;24.40;1.70
31369;DHT22;18004;48.416;10.066;2022-09-12T15:05:55;24.40;2.30
31369;DHT22;18004;48.416;10.066;2022-09-12T15:08:22;24.30;2.60
31369;DHT22;18004;48.416;10.066;2022-09-12T15:10:48;24.50;2.20
31369;DHT22;18004;48.416;10.066;2022-09-12T15:13:15;24.40;3.30
31369;DHT22;18004;48.416;10.066;2022-09-12T15:15:42;24.40;2.90
31369;DHT22;18004;48.416;10.066;2022-09-12T15:18:08;24.50;4.20
31369;DHT22;18004;48.416;10.066;2022-09-12T15:20:35;24.60;2.50
31369;DHT22;18004;48.416;10.066;2022-09-12T15:23:01;24.50;3.00
31369;DHT22;18004;48.416;10.066;2022-09-12T15:25:27;24.60;2.20
31369;DHT22;18004;48.416;10.066;2022-09-12T15:27:52;24.70;1.00
31369;DHT22;18004;48.416;10.066;2022-09-12T15:30:20;24.70;2.00
31369;DHT22;18004;48.416;10.066;2022-09-12T15:32:45;24.80;2.80
31369;DHT22;18004;48.416;10.066;2022-09-12T15:35:21;24.70;1.00
31369;DHT22;18004;48.416;10.066;2022-09-12T15:37:47;24.70;2.90
31369;DHT22;18004;48.416;10.066;2022-09-12T15:40:14;24.70;1.00
31369;DHT22;18004;48.416;10.066;2022-09-12T15:42:40;24.30;2.00
31369;DHT22;18004;48.416;10.066;2022-09-12T15:45:25;24.40;2.40
31369;DHT22;18004;48.416;10.066;2022-09-12T15:47:52;24.40;1.70
31369;DHT22;18004;48.416;10.066;2022-09-12T15:50:18;24.40;1.50
31369;DHT22;18004;48.416;10.066;2022-09-12T15:52:43;24.40;1.70
31369;DHT22;18004;48.416;10.066;2022-09-12T15:55:11;24.10;1.70
31369;DHT22;18004;48.416;10.066;2022-09-12T15:57:40;23.90;1.90
31369;DHT22;18004;48.416;10.066;2022-09-12T16:00:06;23.30;3.60
31369;DHT22;18004;48.416;10.066;2022-09-12T16:02:32;23.20;3.70
31369;DHT22;18004;48.416;10.066;2022-09-12T16:04:57;23.40;4.20
31369;DHT22;18004;48.416;10.066;2022-09-12T16:07:23;23.30;3.10
31369;DHT22;18004;48.416;10.066;2022-09-12T16:09:48;23.20;3.60
31369;DHT22;18004;48.416;10.066;2022-09-12T16:12:15;23.10;3.40
31369;DHT22;18004;48.416;10.066;2022-09-12T16:14:40;23.00;2.70
31369;DHT22;18004;48.416;10.066;2022-09-12T16:17:06;23.00;3.70
31369;DHT22;18004;48.416;10.066;2022-09-12T16:19:32;23.10;3.80
31369;DHT22;18004;48.416;10.066;2022-09-12T16:21:58;22.90;3.70
31369;DHT22;18004;48.416;10.066;2022-09-12T16:24:23;22.70;4.00
31369;DHT22;18004;48.416;10.066;2022-09-12T16:26:49;22.60;4.40
31369;DHT22;18004;48.416;10.066;2022-09-12T16:29:14;22.50;4.30
31369;DHT22;18004;48.416;10.066;2022-09-12T16:31:40;22.60;5.10
31369;DHT22;18004;48.416;10.066;2022-09-12T16:34:06;22.70;5.20
31369;DHT22;18004;48.416;10.066;2022-09-12T16:36:32;22.70;4.80
31369;DHT22;18004;48.416;10.066;2022-09-12T16:38:58;22.80;4.90
31369;DHT22;18004;48.416;10.066;2022-09-12T16:41:43;22.80;4.60
31369;DHT22;18004;48.416;10.066;2022-09-12T16:44:09;22.40;7.90
31369;DHT22;18004;48.416;10.066;2022-09-12T16:46:35;22.30;9.50
31369;DHT22;18004;48.416;10.066;2022-09-12T16:49:00;22.10;11.70
31369;DHT22;18004;48.416;10.066;2022-09-12T16:51:30;22.10;13.40
31369;DHT22;18004;48.416;10.066;2022-09-12T16:53:56;21.90;13.80
31369;DHT22;18004;48.416;10.066;2022-09-12T16:56:22;21.50;16.50
31369;DHT22;18004;48.416;10.066;2022-09-12T16:58:48;21.40;17.40
31369;DHT22;18004;48.416;10.066;2022-09-12T17:01:15;21.20;18.50
31369;DHT22;18004;48.416;10.066;2022-09-12T17:03:41;21.30;19.80
31369;DHT22;18004;48.416;10.066;2022-09-12T17:06:11;21.40;19.80
31369;DHT22;18004;48.416;10.066;2022-09-12T17:08:38;21.40;19.20
31369;DHT22;18004;48.416;10.066;2022-09-12T17:11:08;21.10;20.10
31369;DHT22;18004;48.416;10.066;2022-09-12T17:13:34;21.10;20.80
31369;DHT22;18004;48.416;10.066;2022-09-12T17:16:03;21.00;23.40
31369;DHT22;18004;48.416;10.066;2022-09-12T17:18:29;20.70;26.90
31369;DHT22;18004;48.416;10.066;2022-09-12T17:20:54;20.60;29.20
31369;DHT22;18004;48.416;10.066;2022-09-12T17:23:20;20.70;30.00
31369;DHT22;18004;48.416;10.066;2022-09-12T17:25:47;20.50;32.30
31369;DHT22;18004;48.416;10.066;2022-09-12T17:28:15;20.30;35.40
31369;DHT22;18004;48.416;10.066;2022-09-12T17:30:41;20.30;36.80
31369;DHT22;18004;48.416;10.066;2022-09-12T17:33:07;20.20;39.30
31369;DHT22;18004;48.416;10.066;2022-09-12T17:35:33;20.20;40.20
31369;DHT22;18004;48.416;10.066;2022-09-12T17:37:59;20.00;42.00
31369;DHT22;18004;48.416;10.066;2022-09-12T17:40:25;19.90;44.60